Aérodrome :
LOGIN :

S'inscrire | Disclaimer

   EN    FR    IT 

 










Légende :    VFR   VFR Marginal   IFR   IFR Intensif   IFR Très Intensif
Visi : 
Plafond : 
>= 8 km
>= 3000ft
5 à 8 km
1000 à 3000 ft
1500m à 5 km
500 à 1000 ft
800 à 1500m
200 à 500 ft
< 800m
< 200 ft
Symboles :   Orages  Brouillard  Fortes neiges  Fortes précipitations  Vent > 20 kt
SIGMETs :   Divers  Orages  Givrage  Turbulence  Onde Orograph.  Cendres Volcan.







- Altitude de l'aérodrome : 13 ft
- Code IATA : OST


EBOS - Oostend bruges Int.

DERNIER METAR :
  • 261720Z 34012KT 9999 FEW025TCU SCT030 08/02 Q1016 NOSIG

METARs EXPIRÉS :
  • 261650Z 01013KT 9999 -SHRA FEW025TCU SCT030 08/02 Q1016 NOSIG
  • 261620Z 01011KT 9999 SCT030 09/M00 Q1016 NOSIG
  • 261550Z 01012KT 330V030 9999 SCT030 09/01 Q1016 NOSIG
  • 261520Z 01012KT 9999 FEW024TCU 10/01 Q1016 NOSIG
  • 261450Z 35013KT 9999 FEW024TCU SCT040 09/M00 Q1016 NOSIG

TAF TAF EBOS
Valide du 26 à 18h jusqu'au 28 à 00h UTC


261713Z 2618/2724 35012KT 9999 FEW025CB SCT040
PROB30
TEMPO 2618/2712 4000 SHRAGS
BECMG 2712/2714 29010KT
BECMG 2718/2720 23005KT
PROB40
TEMPO 2718/2724 4000 RA
Pas de NOTAMs connus pour ce terrain.



MET'MAP, la Météo Aéronautique d'un coup d'oeil ! - Copyright ORBIFLY Décembre 2007 - Disclaimer

ORBIFLY MET'MAP TEAM :

Programmation & Développement : Alexandra Zaïnal
Conception & Développement : Baudouin d'Aumeries
Co-Programmation & Développement : Marc-Olivier Méhu
Soutien technique & logistique : Manuel Goepfert

Contact : metmap@orbifly.com




SOURCES & CREDITS :

   NOAA